Tiempo atmosférico en la estación meteorológica de Antequera, Málaga (400 m.)

Fecha
DESCASC
Temp. máxima en grados centígrados (hora)
DESCASC
Temp. mínima en grados centígrados (hora)
DESCASC
Temp. media en grados centígrados
DESCASC
Racha de viento máxima en m/sg (hora)
DESCASC
Velocidad máxima media en intervalos de 10 minutos(hora)
DESCASC
Precipitaciones diarias en mm
DESCASC
Precipitaciones de 00:00 a 06:00 en mm
DESCASC
Precipitaciones de 06:00 a 12:00 en mm
DESCASC
Precipitaciones de 12:00 a 18:00 en mm
DESCASC
Precipitaciones de 18:00 a 24:00 en mm
DESCASC
24-09-2017 32.5 (16:10) 20.6 (07:40) 26.6 9.17 (01:50) 5 (01:50) 0 0 0 0 0
23-09-2017 31.7 (16:20) 23.1 (07:40) 27.4 12.22 (00:40) 6.11 (00:40) 0 0 0 0 0
22-09-2017 31.4 (13:10) 16 (08:20) 23.7 10.28 (16:20) 5.83 (18:30) 0 0 0 0 0
21-09-2017 33.3 (17:30) 15.5 (00:00) 24.4 8.33 (18:10) 4.17 (17:40) 0 0 0 0 0
20-09-2017 32.6 (16:30) 16.3 (00:00) 24.4 10.83 (16:30) 5.83 (17:10) 0 0 0 0 0
19-09-2017 33.8 (17:10) 16.6 (00:00) 25.2 5.28 (18:30) 3.06 (18:50) 0 0 0 0 0
18-09-2017 31.6 (17:10) 14.8 (00:00) 23.2 7.78 (15:50) 4.17 (18:40) 0 0 0 0 0
17-09-2017 32.7 (17:20) 12.9 (00:00) 22.8 5.83 (20:20) 2.78 (20:20) 0 0 0 0 0
16-09-2017 29.9 (16:20) 14.2 (00:00) 22 7.78 (17:40) 3.61 (17:20) 0 0 0 0 0
15-09-2017 33.2 (14:30) 19.9 (00:00) 26.6 11.39 (16:20) 5.28 (15:30) 0 0 0 0 0
14-09-2017 37.4 (17:20) 19.3 (00:00) 28.4 8.61 (16:40) 3.61 (16:40) 0 0 0 0 0
13-09-2017 35.5 (15:40) 24.2 (00:00) 29.9 10.83 (13:00) 5.83 (17:10) 0 0 0 0 0
12-09-2017 38.4 (17:50) 18.2 (00:00) 28.3 6.11 (14:50) 2.5 (00:20) 0 0 0 0 0
11-09-2017 37.2 (19:20) 16 (00:00) 26.6 3.89 (16:40) 2.22 (02:30) 0 0 0 0 0
10-09-2017 30.6 (17:10) 17.1 (00:00) 23.9 6.94 (00:20) 3.33 (01:30) 0 0 0 0 0
09-09-2017 30.4 (15:40) 18.2 (00:00) 24.3 11.39 (21:00) 5.28 (21:40) 0 0 0 0 0
08-09-2017 37.4 (16:40) 24.1 (00:00) 30.8 8.89 (16:20) 3.33 (16:20) 0 0 0 0 0
07-09-2017 35.7 (17:10) 25.2 (00:00) 30.5 8.89 (15:10) 4.72 (15:20) 0 0 0 0 0
06-09-2017 37.3 (14:50) 23.1 (00:00) 30.2 10 (20:10) 5.28 (21:50) 0 0 0 0 0
05-09-2017 34 (18:00) 23.4 (00:00) 28.7 8.33 (11:00) 4.17 (16:00) 0 0 0 0 0
04-09-2017 36 (16:20) 21.3 (00:00) 28.6 8.33 (17:40) 4.17 (17:00) 0 0 0 0 0
03-09-2017 35.1 (17:40) 23.9 (00:00) 29.5 8.33 (11:40) 3.89 (11:00) 0 0 0 0 0
02-09-2017 32 (15:30) 25 (00:00) 28.5 12.22 (10:00) 7.22 (09:40) 0 0 0 0 0
01-09-2017 33.4 (15:50) 22.9 (00:00) 28.2 11.94 (22:20) 6.11 (20:20) 0 0 0 0 0
31-08-2017 34.5 (16:40) 20.9 (00:00) 27.7 9.44 (17:50) 4.72 (23:59) 0 0 0 0 0
30-08-2017 30.1 (16:50) 21.1 (00:00) 25.6 9.17 (18:40) 5 (17:10) 0.1 0.1 0 0 0
29-08-2017 28 (17:10) 19.8 (00:00) 23.9 6.11 (18:40) 3.33 (20:20) 0.1 0 0 0 0.1
28-08-2017 -- (--) -- (--) -- 11.67 (00:10) 5.28 (01:50) 45 0 27.4 17.2 0.4
27-08-2017 33.7 (17:40) 25.1 (00:00) 29.4 18.33 (00:10) 8.89 (00:10) 5 0 0.3 4.7 0
26-08-2017 37.2 (17:10) 27 (00:00) 32.1 15.28 (23:59) 9.17 (23:59) 0 0 0 0 0

Gráficas

Temp. máximas Temp. mínimas Temp. medias Precipitaciones Rachas de viento máximas Velocidades máximas media en intervalos de 10 minutos

Datos horarios

Fecha y hora oficial Temperatura (ºC) Velocidad del viento (km/h) Dirección del viento Racha (km/h) Dirección de racha Precipitación (mm) Presión (hPa) Tendencia (hPa) Humedad (%)
2017-09-24 23:00:00 25.2 4 Sudoeste 8 Sudoeste 0 973 1.2 71
2017-09-24 22:00:00 26.5 2 Oeste 8 Sudoeste 0 972.8 1.2 63
2017-09-24 21:00:00 27.5 2 Sur 9 Sur 0 972.3 0.7 57
2017-09-24 20:00:00 29.7 2 Sur 19 Sur 0 971.8 0 53
2017-09-24 19:00:00 31.1 10 Sur 27 Sur 0 971.6 -0.6 54
2017-09-24 18:00:00 31.9 12 Sudeste 26 Sur 0 971.6 -1 52
2017-09-24 17:00:00 31.7 12 Sur 23 Sudeste 0 971.8 -1.2 52
2017-09-24 16:00:00 32.2 8 Sur 23 Sudoeste 0 972.2 -1.3 52
2017-09-24 15:00:00 31.5 11 Sur 25 Sudeste 0 972.6 -1 54
2017-09-24 14:00:00 30.8 8 Sur 26 Sudeste 0 973 -0.6 56
2017-09-24 13:00:00 30 8 Sur 23 Sur 0 973.5 0.5 60
2017-09-24 12:00:00 28.8 8 Sudeste 24 Sudeste 0 973.6 0.8 65
2017-09-24 11:00:00 26.4 12 Sudeste 24 Sudeste 0 973.6 1 77
2017-09-24 10:00:00 24.6 9 Sudeste 23 Sudeste 0 973 1 88
2017-09-24 09:00:00 22.9 9 Sudeste 20 Sudeste 0 972.8 0.8 91
2017-09-24 08:00:00 21.4 2 Sudeste 10 Nordeste 0 972.6 0.4 91
2017-09-24 07:00:00 21.5 3 Este 9 Oeste 0 972 -0.5 90
2017-09-24 06:00:00 22.1 4 Oeste 15 Sudeste 0 972 -0.7 86
2017-09-24 05:00:00 23.3 0 Calma 28 Sur 0 972.2 -0.5 78
2017-09-24 04:00:00 24 12 Sur 30 Sur 0 972.5 0 72
2017-09-24 03:00:00 24.2 12 Sur 26 Sudeste 0 972.7 0.3 70
2017-09-24 02:00:00 24.2 17 Sur 33 Sudeste 0 972.7 0.7 75
2017-09-24 01:00:00 23.7 12 Sur 29 Sur 0 972.5 0.8 84
2017-09-24 00:00:00 24.1 10 Sur 28 Sudeste 0 972.4 1.5 81
2017-09-23 23:00:00 24.4 10 Sur 28 Sur 0 972 1.8 78
2017-09-23 22:00:00 25.3 8 Sur 22 Sudeste 0 971.7 1.8 70
2017-09-23 21:00:00 26.4 5 Sur 26 Sur 0 970.9 1.1 63
2017-09-23 20:00:00 28.3 12 Sur 27 Sudeste 0 970.2 0.2 55
2017-09-23 19:00:00 29.9 14 Sur 30 Sur 0 969.9 -0.5 53
2017-09-23 18:00:00 30.7 15 Sudeste 33 Sur 0 969.8 -0.9 53
2017-09-23 17:00:00 31.2 16 Sudeste 31 Sudeste 0 970 -1.2 51
2017-09-23 16:00:00 31.1 12 Sudeste 26 Sudeste 0 970.4 -0.9 50
2017-09-23 15:00:00 30.2 9 Sur 25 Sudeste 0 970.7 -0.9 52
2017-09-23 14:00:00 30.7 9 Sur 32 Sudeste 0 971.2 -0.3 53
2017-09-23 13:00:00 29.3 14 Sudeste 32 Sur 0 971.3 0 55
2017-09-23 12:00:00 28 17 Sudeste 32 Sudeste 0 971.6 1 61
2017-09-23 11:00:00 26.5 15 Sudeste 32 Sudeste 0 971.5 1.2 73
2017-09-23 10:00:00 25.4 10 Sudeste 24 Sudeste 0 971.3 1.2 77
2017-09-23 09:00:00 23.6 10 Sudeste 34 Sudeste 0 970.6 0.7 86
2017-09-23 08:00:00 23.3 13 Sudeste 29 Sudeste 0 970.3 0.5 89
2017-09-23 07:00:00 23.3 12 Sudeste 27 Sur 0 970.1 0.2 91
2017-09-23 06:00:00 23.5 14 Sur 27 Sudeste 0 969.9 -0.3 92
2017-09-23 05:00:00 23.8 16 Sur 30 Sudeste 0 969.8 -0.6 92
2017-09-23 04:00:00 23.9 11 Sudeste 40 Sur 0 969.9 -0.6 90
2017-09-23 03:00:00 24.3 18 Sur 36 Sudeste 0 970.2 -0.3 89
2017-09-23 02:00:00 24.5 13 Sur 32 Sur 0 970.4 0.1 90
2017-09-23 01:00:00 24.6 17 Sur 44 Sudeste 0 970.5 0.5 87
2017-09-23 00:00:00 24.5 14 Sur 36 Sur 0 970.5 1.5 83
2017-09-22 23:00:00 24.4 17 Sur 37 Sur 0 970.3 1.8 85
2017-09-22 22:00:00 24.4 19 Sur 33 Sur 0 970 1.9 86
2017-09-22 21:00:00 25.4 16 Sudeste 33 Sudeste 0 969 0.9 73
2017-09-22 20:00:00 27.4 18 Sur 34 Sur 0 968.5 0.2 51
2017-09-22 19:00:00 29.3 18 Sudeste 34 Sudeste 0 968.1 -0.7 50
2017-09-22 18:00:00 30.2 18 Sudeste 32 Sudeste 0 968.1 -1.1 54
2017-09-22 17:00:00 30.4 17 Sudeste 37 Sudeste 0 968.3 -1.3 56
2017-09-22 16:00:00 30.5 16 Sudeste 33 Sudeste 0 968.8 -0.9 57
2017-09-22 15:00:00 30.5 11 Sur 33 Sudeste 0 969.2 -0.6 57
2017-09-22 14:00:00 30.3 12 Sudeste 28 Sudeste 0 969.6 -0.4 54
2017-09-22 13:00:00 30.6 13 Sudeste 27 Sur 0 969.7 -0.1 47
2017-09-22 12:00:00 29.6 6 Sur 15 Sur 0 969.8 0.4 48
2017-09-22 11:00:00 24.8 0 Calma 5 Sudeste 0 970 1 61
2017-09-22 10:00:00 20.2 0 Calma 6 Norte 0 969.8 1.4 67
2017-09-22 09:00:00 17.3 4 Nordeste 6 Norte 0 969.4 1.1 73
2017-09-22 08:00:00 17.6 0 Calma 8 Noroeste 0 969 0.3 72
2017-09-22 07:00:00 17.8 0 Calma 4 Oeste 0 968.4 -0.5 68
2017-09-22 06:00:00 19.3 3 Nordeste 7 Nordeste 0 968.3 -0.7 65
2017-09-22 05:00:00 20 3 Nordeste 6 Noroeste 0 968.7 -0.5 69
2017-09-22 04:00:00 22.1 4 Norte 6 Norte 0 968.9 -0.1 67
2017-09-22 03:00:00 22.2 0 Calma 7 Norte 0 969 0.2 62
2017-09-22 02:00:00 23.3 4 Noroeste 10 Noroeste 0 969.2 0.8 57
2017-09-22 01:00:00 24.1 5 Noroeste 6 Noroeste 0 969 0.8 49
2017-09-22 00:00:00 25 0 Calma 5 Sudeste 0 968.8 1.3 45
2017-09-21 23:00:00 26 0 Calma 8 Sudoeste 0 968.4 1.3 44
2017-09-21 22:00:00 26.9 0 Calma 7 Sudoeste 0 968.2 1.1 42
2017-09-21 21:00:00 28 2 Sudoeste 15 Sur 0 967.5 0.4 39
2017-09-21 20:00:00 30.1 6 Sur 24 Sudeste 0 967.1 0 36
2017-09-21 19:00:00 31.9 11 Sur 30 Sudeste 0 967.1 -0.6 35
2017-09-21 18:00:00 32.6 14 Sudeste 28 Sudeste 0 967.1 -1 34
2017-09-21 17:00:00 32.5 10 Sur 29 Sudeste 0 967.1 -1.4 35
2017-09-21 16:00:00 32.5 13 Sudeste 29 Sur 0 967.7 -1.3 36
2017-09-21 15:00:00 31.6 9 Sur 26 Sur 0 968.1 -1.4 37
2017-09-21 14:00:00 32 9 Sur 24 Sudeste 0 968.5 -1.2 38
2017-09-21 13:00:00 30.8 13 Sudeste 25 Sudeste 0 969 -0.3 40
2017-09-21 12:00:00 29.2 4 Sudeste 13 Sudeste 0 969.5 0.3 42
2017-09-21 11:00:00 24.3 0 Calma 6 Este 0 969.7 0.9 56
2017-09-21 10:00:00 20 0 Calma 7 Sur 0 969.3 1.1 67
2017-09-21 09:00:00 17.1 0 Calma 7 Noroeste 0 969.2 0.7 74
2017-09-21 08:00:00 15.6 0 Calma 4 Sudoeste 0 968.8 0 75
2017-09-21 07:00:00 16.3 0 Calma 4 Sudeste 0 968.2 -1 71
2017-09-21 06:00:00 18.1 0 Calma 5 Noroeste 0 968.5 -1.1 65
2017-09-21 05:00:00 20.4 2 Nordeste 8 Nordeste 0 968.8 -0.7 59
2017-09-21 04:00:00 21.1 0 Calma 6 Noroeste 0 969.2 -0.3 58
2017-09-21 03:00:00 22.5 4 Noroeste 10 Norte 0 969.6 0 54
2017-09-21 02:00:00 23.6 3 Noroeste 8 Noroeste 0 969.5 -0.1 50
2017-09-21 01:00:00 24 0 Calma 7 Noroeste 0 969.5 0.4 48
2017-09-21 00:00:00 24.6 2 Noroeste 9 Sur 0 969.6 0.6 48
2017-09-20 23:00:00 25.3 0 Calma 14 Sur 0 969.6 0.5 45
2017-09-20 22:00:00 26.3 3 Sur 13 Sudeste 0 969.1 0 43
2017-09-20 21:00:00 27.4 4 Sur 13 Sur 0 969 -0.1 43
2017-09-20 20:00:00 28.6 6 Sur 22 Sur 0 969.1 -0.3 40
2017-09-20 19:00:00 30.8 13 Sudeste 33 Sudeste 0 969.1 -0.9 36
2017-09-20 18:00:00 31.6 15 Sudeste 39 Sudeste 0 969.1 -1.5 37
2017-09-20 17:00:00 32 19 Sudeste 39 Sur 0 969.4 -1.6 36
2017-09-20 16:00:00 31.7 21 Sudeste 36 Sudeste 0 970 -1.3 38
2017-09-20 15:00:00 31.5 13 Sur 38 Sudeste 0 970.6 -1 39
2017-09-20 14:00:00 31.8 14 Sur 32 Sur 0 971 -0.9 41
2017-09-20 13:00:00 31.3 15 Sur 31 Sur 0 971.3 -0.5 44
2017-09-20 12:00:00 30.1 8 Sudeste 23 Sudeste 0 971.6 -0.1 46
2017-09-20 11:00:00 27.2 9 Sudeste 18 Sudeste 0 971.9 0.3 54
2017-09-20 10:00:00 20.3 0 Calma 8 Sur 0 971.8 0.2 72
2017-09-20 09:00:00 17.8 0 Calma 4 Nordeste 0 971.7 0 78
2017-09-20 08:00:00 16.9 0 Calma 4 Oeste 0 971.6 -0.4 80
2017-09-20 07:00:00 17.5 0 Calma 5 Nordeste 0 971.6 -0.7 79
2017-09-20 06:00:00 18 3 Norte 5 Norte 0 971.7 -0.7 74
2017-09-20 05:00:00 19.2 0 Calma 0 Calma 0 972 -0.7 71
2017-09-20 04:00:00 20.2 0 Calma 3 Sur 0 972.3 -0.4 68
2017-09-20 03:00:00 20.9 0 Calma 4 Sudeste 0 972.4 -0.2 63
2017-09-20 02:00:00 22 0 Calma 8 Noroeste 0 972.7 0.4 58
2017-09-20 01:00:00 23.2 0 Calma 8 Noroeste 0 972.7 0.4 55
2017-09-20 00:00:00 24.2 0 Calma 9 Noroeste 0 972.6 0.8 52
2017-09-19 23:00:00 25.1 2 Sudoeste 8 Sudoeste 0 972.3 1 50
2017-09-19 22:00:00 26.3 3 Sur 14 Sur 0 972.3 1.3 47
2017-09-19 21:00:00 28.2 5 Sur 17 Sur 0 971.8 1 44
2017-09-19 20:00:00 30.2 7 Sur 19 Sudeste 0 971.3 0.1 42
2017-09-19 19:00:00 32.2 9 Sudeste 19 Sudeste 0 971 -0.7 40
2017-09-19 18:00:00 33.6 3 Sur 16 Este 0 970.8 -1.5 38
2017-09-19 17:00:00 33.7 2 Norte 15 Nordeste 0 971.2 -2 38
2017-09-19 16:00:00 32.8 5 Este 13 Este 0 971.7 -2 39
2017-09-19 15:00:00 32.3 2 Nordeste 13 Sur 0 972.3 -1.7 42
2017-09-19 14:00:00 30.9 0 Calma 11 Sur 0 973.2 -0.9 45
2017-09-19 13:00:00 29.3 5 Noroeste 11 Oeste 0 973.7 0 53
2017-09-19 12:00:00 27 5 Nordeste 12 Este 0 974 0.9 59
2017-09-19 11:00:00 23.8 2 Sudeste 8 Sur 0 974.1 1.3 72
2017-09-19 10:00:00 20.2 0 Calma 4 Sudeste 0 973.7 1.1 80
2017-09-19 09:00:00 17.7 0 Calma 4 Nordeste 0 973.1 0.7 89
2017-09-19 08:00:00 17.1 0 Calma 2 Noroeste 0 972.8 0.2 92
2017-09-19 07:00:00 17.6 0 Calma 4 Nordeste 0 972.6 -0.1 89
2017-09-19 06:00:00 18.7 0 Calma 3 Noroeste 0 972.4 -0.8 87
2017-09-19 05:00:00 19.4 0 Calma 6 Noroeste 0 972.6 -0.8 84
2017-09-19 04:00:00 20.7 3 Nordeste 6 Nordeste 0 972.7 -0.7 81
2017-09-19 03:00:00 20.9 0 Calma 6 Sur 0 973.2 0 79
2017-09-19 02:00:00 22.3 0 Calma 7 Noroeste 0 973.4 0.6 75
2017-09-19 01:00:00 23.3 0 Calma 15 Noroeste 0 973.4 0.9 71
2017-09-19 00:00:00 24.1 4 Noroeste 21 Norte 0 973.2 1.5 68
2017-09-18 23:00:00 25.2 3 Oeste 25 Norte 0 972.8 1.4 64
2017-09-18 22:00:00 26.2 3 Noroeste 23 Noroeste 0 972.5 1.4 59
2017-09-18 21:00:00 28 5 Noroeste 22 Norte 0 971.7 0.9 48
2017-09-18 20:00:00 29.7 10 Noroeste 23 Noroeste 0 971.4 0.4 43
2017-09-18 19:00:00 31.1 12 Noroeste 28 Noroeste 0 971.1 -0.4 41
2017-09-18 18:00:00 31.1 12 Noroeste 25 Noroeste 0 970.8 -1.1 39
2017-09-18 17:00:00 30.8 12 Noroeste 25 Noroeste 0 971 -1.1 36
2017-09-18 16:00:00 30.8 12 Noroeste 28 Noroeste 0 971.5 -1.1 36
2017-09-18 15:00:00 30.5 12 Noroeste 27 Oeste 0 971.9 -0.7 37
2017-09-18 14:00:00 29.3 12 Noroeste 25 Noroeste 0 972.1 -0.6 41
2017-09-18 13:00:00 28.4 8 Noroeste 25 Oeste 0 972.6 0.3 41
2017-09-18 12:00:00 26.4 3 Noroeste 15 Este 0 972.6 0.7 48
2017-09-18 11:00:00 23.2 0 Calma 11 Sudeste 0 972.7 1.3 58
2017-09-18 10:00:00 18.9 2 Sudeste 10 Sur 0 972.3 1.5 70
2017-09-18 09:00:00 16.5 2 Sur 6 Nordeste 0 971.9 1.1 77
2017-09-18 08:00:00 15 3 Nordeste 5 Nordeste 0 971.4 0.6 79
2017-09-18 07:00:00 15.6 0 Calma 5 Norte 0 970.8 0.1 78
2017-09-18 06:00:00 16.6 0 Calma 5 Norte 0 970.8 -0.2 74
2017-09-18 05:00:00 17.7 0 Calma 5 Norte 0 970.8 -0.4 71
2017-09-18 04:00:00 19.6 0 Calma 6 Nordeste 0 970.7 -0.2 64
2017-09-18 03:00:00 20 0 Calma 9 Norte 0 971 -0.1 63
2017-09-18 02:00:00 21.4 0 Calma 10 Noroeste 0 971.2 0.1 61
2017-09-18 01:00:00 22.6 6 Noroeste 9 Noroeste 0 970.9 0.5 60
2017-09-18 00:00:00 23.1 0 Calma 8 Oeste 0 971.1 1.4 56
2017-09-17 23:00:00 24.3 4 Noroeste 8 Oeste 0 971.1 2.1 55
2017-09-17 22:00:00 26 5 Oeste 15 Oeste 0 970.4 1.5 53
2017-09-17 21:00:00 27.6 8 Noroeste 21 Noroeste 0 969.7 0.7 48
2017-09-17 20:00:00 30 6 Noroeste 16 Noroeste 0 969 0.1 42
2017-09-17 19:00:00 31.6 3 Noroeste 21 Noroeste 0 968.9 -0.3 38
2017-09-17 18:00:00 31.6 7 Noroeste 21 Oeste 0 969 -0.7 38
2017-09-17 17:00:00 32.3 5 Noroeste 17 Noroeste 0 968.9 -1.5 37
2017-09-17 16:00:00 31.2 4 Oeste 14 Sudoeste 0 969.2 -1.6 38
2017-09-17 15:00:00 31.3 5 Sur 15 Sudoeste 0 969.7 -1.6 40
2017-09-17 14:00:00 29.9 4 Noroeste 16 Noroeste 0 970.4 -0.7 42
2017-09-17 13:00:00 28.8 3 Sudoeste 12 Sur 0 970.8 0 46
2017-09-17 12:00:00 26.2 0 Calma 8 Este 0 971.3 1.1 53
2017-09-17 11:00:00 21.6 0 Calma 7 Norte 0 971.1 1.1 65
2017-09-17 10:00:00 17.5 0 Calma 4 Sur 0 970.8 1.4 73
2017-09-17 09:00:00 15.4 0 Calma 4 Sudeste 0 970.2 1.1 74
2017-09-17 08:00:00 13.6 0 Calma 3 Sudeste 0 970 1 76
2017-09-17 07:00:00 14.2 0 Calma 3 Sudeste 0 969.4 0.4 70
2017-09-17 06:00:00 15.2 0 Calma 4 Oeste 0 969.1 0.2 69
2017-09-17 05:00:00 15.9 0 Calma 4 Nordeste 0 969 -0.1 65
2017-09-17 04:00:00 17.5 0 Calma 9 Nordeste 0 969 -0.2 61
2017-09-17 03:00:00 17.6 0 Calma 6 Norte 0 968.9 0 63
2017-09-17 02:00:00 18.5 0 Calma 5 Nordeste 0 969.1 0.5 62
2017-09-17 01:00:00 19.5 0 Calma 7 Nordeste 0 969.2 1.3 58
2017-09-17 00:00:00 20.8 0 Calma 5 Sudeste 0 968.9 1.7 54
2017-09-16 23:00:00 21.9 0 Calma 9 Noroeste 0 968.6 2 51
2017-09-16 22:00:00 23.2 3 Noroeste 6 Noroeste 0 967.9 1.7 46
2017-09-16 21:00:00 24.7 0 Calma 14 Noroeste 0 967.2 1.5 43
2017-09-16 20:00:00 27.3 9 Noroeste 22 Noroeste 0 966.6 0.9 40
2017-09-16 19:00:00 29.2 12 Noroeste 24 Noroeste 0 966.2 0.5 39
2017-09-16 18:00:00 29.5 12 Noroeste 28 Oeste 0 965.7 -0.5 38
2017-09-16 17:00:00 29.4 11 Oeste 25 Oeste 0 965.7 -0.9 38
2017-09-16 16:00:00 29.1 12 Oeste 26 Oeste 0 965.7 -1.3 39
2017-09-16 15:00:00 28.9 9 Noroeste 24 Noroeste 0 966.2 -0.7 40
2017-09-16 14:00:00 27.7 10 Oeste 27 Noroeste 0 966.6 -0.2 41
2017-09-16 13:00:00 26.9 8 Oeste 21 Oeste 0 967 0.6 42
2017-09-16 12:00:00 25.8 9 Noroeste 22 Noroeste 0 966.9 0.9 47
2017-09-16 11:00:00 22.6 2 Sudeste 8 Sudeste 0 966.8 1.6 59
2017-09-16 10:00:00 18.2 3 Sur 8 Sudeste 0 966.4 1.8 67
2017-09-16 09:00:00 15.2 0 Calma 3 Sur 0 966 1.5 72
2017-09-16 08:00:00 14.4 0 Calma 7 Nordeste 0 965.2 0.7 74
2017-09-16 07:00:00 15.2 0 Calma 6 Este 0 964.6 0 71
2017-09-16 06:00:00 15.9 2 Nordeste 6 Nordeste 0 964.5 -0.2 69
2017-09-16 05:00:00 16.7 0 Calma 5 Nordeste 0 964.5 -0.5 66
2017-09-16 04:00:00 17.7 3 Nordeste 5 Nordeste 0 964.6 -0.6 63
2017-09-16 03:00:00 18.9 0 Calma 6 Nordeste 0 964.7 -0.5 59
2017-09-16 02:00:00 20.3 0 Calma 5 Sur 0 965 0.2 55
2017-09-16 01:00:00 21.1 3 Nordeste 9 Norte 0 965.2 0.6 53
2017-09-16 00:00:00 21.7 4 Nordeste 11 Sur 0 965.2 1.3 51
2017-09-15 23:00:00 23 0 Calma 9 Noroeste 0 964.8 0.9 47
2017-09-15 22:00:00 23.8 2 Nordeste 21 Sur 0 964.6 0.8 39
2017-09-15 21:00:00 25.5 3 Oeste 23 Oeste 0 963.9 0.1 34
2017-09-15 20:00:00 27.8 10 Oeste 30 Oeste 0 963.9 0.2 31
2017-09-15 19:00:00 30.1 14 Oeste 32 Oeste 0 963.8 -0.1 31
2017-09-15 18:00:00 31 14 Oeste 33 Oeste 0 963.8 -0.6 30
2017-09-15 17:00:00 31.8 14 Oeste 41 Oeste 0 963.7 -1 28
2017-09-15 16:00:00 32.5 18 Oeste 38 Oeste 0 963.9 -1.3 26
2017-09-15 15:00:00 32.6 13 Oeste 33 Oeste 0 964.4 -0.7 25
2017-09-15 14:00:00 32.6 16 Oeste 32 Noroeste 0 964.7 -1 31
2017-09-15 13:00:00 31 16 Noroeste 31 Oeste 0 965.2 -0.6 43
2017-09-15 12:00:00 30.1 2 Este 12 Este 0 965.1 -0.4 50
2017-09-15 11:00:00 26.8 5 Sudeste 10 Este 0 965.7 0.4 60
2017-09-15 10:00:00 23.7 0 Calma 6 Este 0 965.8 0.2 67
2017-09-15 09:00:00 21.5 0 Calma 7 Nordeste 0 965.5 -0.3 70
2017-09-15 08:00:00 20.4 0 Calma 3 Norte 0 965.3 -1 71
2017-09-15 07:00:00 21 0 Calma 6 Nordeste 0 965.6 -1 67
2017-09-15 06:00:00 22.2 6 Nordeste 8 Nordeste 0 965.8 -1.1 64
2017-09-15 05:00:00 22.3 0 Calma 6 Norte 0 966.3 -1 63
2017-09-15 04:00:00 23.2 0 Calma 8 Nordeste 0 966.6 -1.1 60
2017-09-15 03:00:00 24.5 0 Calma 5 Oeste 0 966.9 -1.3 56
2017-09-15 02:00:00 23.9 2 Noroeste 8 Noroeste 0 967.3 -0.8 55
2017-09-15 01:00:00 26.3 0 Calma 7 Nordeste 0 967.7 -0.1 49
2017-09-15 00:00:00 26.7 0 Calma 9 Noroeste 0 968.2 0.7 48
2017-09-14 23:00:00 28.7 5 Noroeste 12 Noroeste 0 968.1 0.3 44
2017-09-14 22:00:00 30 2 Noroeste 7 Nordeste 0 967.8 0 43
2017-09-14 21:00:00 31.2 0 Calma 15 Oeste 0 967.5 -0.6 40
2017-09-14 20:00:00 32.6 9 Oeste 25 Oeste 0 967.8 -0.8 38
2017-09-14 19:00:00 34.5 9 Oeste 23 Oeste 0 967.8 -1.5 36
2017-09-14 18:00:00 35.4 12 Oeste 27 Oeste 0 968.1 -2.2 30
2017-09-14 17:00:00 36.8 11 Oeste 31 Noroeste 0 968.6 -2.2 30
2017-09-14 16:00:00 36.5 9 Noroeste 24 Noroeste 0 969.3 -2.3 36
2017-09-14 15:00:00 35.1 12 Noroeste 25 Norte 0 970.3 -2 38
2017-09-14 14:00:00 34.8 3 Norte 19 Noroeste 0 970.8 -1.6 41
2017-09-14 13:00:00 33.1 4 Noroeste 14 Noroeste 0 971.6 -0.6 45
2017-09-14 12:00:00 31.3 0 Calma 9 Noroeste 0 972.3 0.2 49
2017-09-14 11:00:00 26.5 0 Calma 5 Sudeste 0 972.4 0.6 67
2017-09-14 10:00:00 22.8 0 Calma 4 Este 0 972.2 0.3 76
2017-09-14 09:00:00 20.7 0 Calma 3 Oeste 0 972.1 0.2 81
2017-09-14 08:00:00 19.4 0 Calma 6 Noroeste 0 971.8 -0.2 84
2017-09-14 07:00:00 20.1 0 Calma 9 Norte 0 971.9 -0.4 79
2017-09-14 06:00:00 21 5 Nordeste 8 Nordeste 0 971.9 -0.6 77
2017-09-14 05:00:00 21.3 0 Calma 9 Nordeste 0 972 -0.7 77
2017-09-14 04:00:00 23.2 0 Calma 5 Nordeste 0 972.3 -0.5 76
2017-09-14 03:00:00 24.3 2 Oeste 7 Noroeste 0 972.5 -0.4 69
2017-09-14 02:00:00 24.6 0 Calma 7 Sur 0 972.7 -0.1 70
2017-09-14 01:00:00 25.3 2 Sur 7 Sur 0 972.8 0.2 64
2017-09-14 00:00:00 26 0 Calma 7 Sudoeste 0 972.9 0.8 58
2017-09-13 23:00:00 26.7 3 Sudoeste 11 Sudoeste 0 972.8 0.9 55
2017-09-13 22:00:00 27.6 4 Sudoeste 11 Sudoeste 0 972.6 0.8 52
2017-09-13 21:00:00 29.3 4 Sur 27 Sur 0 972.1 0.3 45
2017-09-13 20:00:00 31 10 Sur 22 Sur 0 971.9 -0.5 42
2017-09-13 19:00:00 33 14 Sudeste 34 Sudeste 0 971.8 -1 40
2017-09-13 18:00:00 34.2 14 Sudeste 33 Sur 0 971.8 -1.4 38
2017-09-13 17:00:00 34.4 18 Sudeste 36 Sudeste 0 972.4 -1.2 40
2017-09-13 16:00:00 34.4 17 Sur 35 Sudeste 0 972.8 -1.3 41
2017-09-13 15:00:00 34.1 12 Sur 35 Sur 0 973.2 -0.9 40
2017-09-13 14:00:00 33.6 15 Sur 39 Sur 0 973.6 -0.3 43
2017-09-13 13:00:00 31.8 19 Sur 39 Sudeste 0 974.1 0.9 50
2017-09-13 12:00:00 31.5 11 Sudeste 28 Sur 0 974.1 1.2 53
2017-09-13 11:00:00 29.5 9 Sur 22 Sur 0 973.9 1.2 60
2017-09-13 10:00:00 28.3 6 Sudeste 22 Este 0 973.2 1.3 65
2017-09-13 09:00:00 26.4 5 Sudeste 19 Sur 0 972.9 1.3 68
2017-09-13 08:00:00 25.2 9 Sudeste 21 Sudeste 0 972.7 1 76
2017-09-13 07:00:00 24.8 4 Sur 17 Sur 0 971.9 0.1 79
2017-09-13 06:00:00 24.5 3 Sur 19 Sudeste 0 971.6 -0.3 80
2017-09-13 05:00:00 25.4 12 Sur 31 Sur 0 971.7 -0.4 76
2017-09-13 04:00:00 25.6 16 Sur 30 Sur 0 971.8 0 77
2017-09-13 03:00:00 25.7 15 Sur 31 Sur 0 971.9 0.6 74
2017-09-13 02:00:00 26.2 6 Sur 20 Sur 0 972.1 1.1 56
2017-09-13 01:00:00 26.6 5 Sur 13 Sur 0 971.8 1.6 45
2017-09-13 00:00:00 27.5 3 Sudoeste 8 Sur 0 971.3 2.2 40
2017-09-12 23:00:00 28.2 0 Calma 6 Sudoeste 0 971 2.2 36
2017-09-12 22:00:00 31.1 0 Calma 7 Norte 0 970.2 1.8 32
2017-09-12 21:00:00 34.3 0 Calma 6 Norte 0 969.1 1 28
2017-09-12 20:00:00 36.1 0 Calma 15 Oeste 0 968.8 0.6 26
2017-09-12 19:00:00 37.7 6 Noroeste 22 Nordeste 0 968.4 0.1 26
2017-09-12 18:00:00 37.6 8 Nordeste 22 Nordeste 0 968.1 -0.7 27
2017-09-12 17:00:00 38 3 Norte 18 Nordeste 0 968.2 -0.8 29
2017-09-12 16:00:00 37.2 4 Norte 15 Norte 0 968.3 -1 29
2017-09-12 15:00:00 36.7 3 Nordeste 22 Nordeste 0 968.8 -0.5 30
2017-09-12 14:00:00 35.5 5 Nordeste 18 Noroeste 0 969 -0.3 35
2017-09-12 13:00:00 34.4 5 Noroeste 14 Noroeste 0 969.3 0.5 39
2017-09-12 12:00:00 32.3 3 Nordeste 9 Este 0 969.3 1 44
2017-09-12 11:00:00 27.1 0 Calma 6 Sudeste 0 969.3 1.5 53
2017-09-12 10:00:00 23.4 0 Calma 7 Este 0 968.8 1.9 60
2017-09-12 09:00:00 21.4 0 Calma 6 Norte 0 968.3 1.4 64
2017-09-12 08:00:00 18.7 0 Calma 5 Norte 0 967.8 1 69
2017-09-12 07:00:00 19.8 0 Calma 4 Noroeste 0 966.9 0.3 64
2017-09-12 06:00:00 20.3 0 Calma 10 Nordeste 0 966.9 0.3 62
2017-09-12 05:00:00 21.2 0 Calma 5 Norte 0 966.8 0.1 59
2017-09-12 04:00:00 22.2 0 Calma 5 Sur 0 966.6 -0.2 55
2017-09-12 03:00:00 23.8 0 Calma 3 Sur 0 966.6 -0.1 51
2017-09-12 02:00:00 24.9 0 Calma 5 Oeste 0 966.7 0.2 47
2017-09-12 01:00:00 25.1 0 Calma 13 Noroeste 0 966.8 0.8 46
2017-09-12 00:00:00 27 0 Calma 8 Noroeste 0 966.7 1.2 42
2017-09-11 23:00:00 28.5 5 Oeste 6 Noroeste 0 966.5 1.1 40
2017-09-11 22:00:00 30.2 3 Sudoeste 6 Sudoeste 0 966 0.5 36
2017-09-11 21:00:00 33.3 0 Calma 7 Nordeste 0 965.5 0 32
2017-09-11 20:00:00 35.3 0 Calma 11 Norte 0 965.4 -0.4 28
2017-09-11 19:00:00 36.4 3 Este 12 Nordeste 0 965.5 -0.8 27
2017-09-11 18:00:00 36.5 5 Noroeste 13 Noroeste 0 965.5 -1.4 25
2017-09-11 17:00:00 36.2 3 Oeste 14 Noroeste 0 965.8 -- 25
2017-09-11 16:00:00 35.5 3 Norte 13 Nordeste 0 966.3 -1.7 29
2017-09-11 15:00:00 34.9 0 Calma 13 Sudeste 0 966.9 -1.4 31
2017-09-11 14:00:00 -- 0 Calma 9 Oeste 0 -- -- --
2017-09-11 13:00:00 31.8 2 Sur 10 Sur 0 968 0.1 37
2017-09-11 12:00:00 29.1 0 Calma 8 Este 0 968.3 0.8 45
2017-09-11 11:00:00 25.1 0 Calma 6 Sudeste 0 968.2 0.8 54
2017-09-11 10:00:00 20.9 0 Calma 6 Sur 0 967.9 1.1 65
2017-09-11 09:00:00 17.8 0 Calma 7 Sudeste 0 967.5 0.8 70
2017-09-11 08:00:00 16.6 0 Calma 7 Sudeste 0 967.4 0.2 71
2017-09-11 07:00:00 16.9 0 Calma 6 Sur 0 966.8 -0.5 67
2017-09-11 06:00:00 17.6 0 Calma 10 Sur 0 966.7 -0.9 63
2017-09-11 05:00:00 18.8 0 Calma 6 Norte 0 967.2 -0.6 59
2017-09-11 04:00:00 19.2 2 Nordeste 6 Norte 0 967.3 -0.5 56
2017-09-11 03:00:00 21 2 Nordeste 12 Noroeste 0 967.6 -0.5 51
2017-09-11 02:00:00 21.1 4 Nordeste 12 Noroeste 0 967.8 0 51
2017-09-11 01:00:00 21 5 Norte 11 Noroeste 0 967.8 0.5 51
2017-09-11 00:00:00 22.7 0 Calma 10 Nordeste 0 968.1 1.4 47
2017-09-10 23:00:00 23.3 0 Calma 9 Oeste 0 967.8 1.4 43
2017-09-10 22:00:00 26.4 5 Noroeste 10 Noroeste 0 967.3 1.1 39
2017-09-10 21:00:00 27 6 Noroeste 12 Norte 0 966.7 0.5 39
2017-09-10 20:00:00 29 2 Norte 16 Noroeste 0 966.4 0.5 36
2017-09-10 19:00:00 29.7 5 Norte 20 Norte 0 966.2 -0.5 36
2017-09-10 18:00:00 30.3 6 Norte 24 Norte 0 966.2 -0.7 36
2017-09-10 17:00:00 29.8 6 Norte 21 Noroeste 0 965.9 -1 36
2017-09-10 16:00:00 29 7 Noroeste 24 Noroeste 0 966.7 -0.7 38
2017-09-10 15:00:00 28 8 Noroeste 23 Noroeste 0 966.9 -0.9 42
2017-09-10 14:00:00 27.8 5 Nordeste 25 Nordeste 0 966.9 -0.5 45
2017-09-10 13:00:00 26.5 2 Norte 15 Nordeste 0 967.4 0.7 52
2017-09-10 12:00:00 23.5 4 Nordeste 13 Norte 0 967.8 1.4 57
2017-09-10 11:00:00 21.5 5 Noroeste 13 Nordeste 0 967.4 1.8 63
2017-09-10 10:00:00 20.4 0 Calma 6 Sur 0 966.7 1.8 67
2017-09-10 09:00:00 18.7 0 Calma 11 Noroeste 0 966.4 1.6 71
2017-09-10 08:00:00 17.3 3 Nordeste 12 Noroeste 0 965.6 1 71
2017-09-10 07:00:00 17.9 0 Calma 14 Sur 0 964.9 0.4 69
2017-09-10 06:00:00 19 2 Noroeste 14 Norte 0 964.8 0.6 66
2017-09-10 05:00:00 19.6 0 Calma 15 Noroeste 0 964.6 0.1 64
2017-09-10 04:00:00 20.4 6 Noroeste 20 Noroeste 0 964.5 0.6 63
2017-09-10 03:00:00 21.4 10 Oeste 20 Oeste 0 964.2 0.4 61
2017-09-10 02:00:00 22.4 9 Noroeste 21 Oeste 0 964.5 0.9 61
2017-09-10 01:00:00 23 10 Oeste 25 Oeste 0 963.9 1.1 72
2017-09-10 00:00:00 23.8 9 Oeste 22 Oeste 0 963.8 1.8 72
2017-09-09 23:00:00 24.5 8 Oeste 26 Noroeste 0 963.6 1.7 70
2017-09-09 22:00:00 25.4 14 Oeste 40 Oeste 0 962.8 0.7 65
2017-09-09 21:00:00 26.4 13 Oeste 41 Oeste 0 962 -0.1 60
2017-09-09 20:00:00 28.4 13 Oeste 33 Oeste 0 961.9 -0.6 53
2017-09-09 19:00:00 29.9 14 Oeste 36 Oeste 0 962.1 -1.1 48
2017-09-09 18:00:00 29.4 18 Oeste 39 Noroeste 0 962.1 -1.2 48
2017-09-09 17:00:00 29.3 15 Oeste 31 Oeste 0 962.5 -1.3 49
2017-09-09 16:00:00 29.2 14 Noroeste 32 Oeste 0 963.2 -1.1 44
2017-09-09 15:00:00 29.7 13 Oeste 27 Oeste 0 963.3 -1.3 41
2017-09-09 14:00:00 28.4 12 Noroeste 21 Noroeste 0 963.8 -0.9 44
2017-09-09 13:00:00 28.3 9 Noroeste 22 Noroeste 0 964.3 -0.1 49
2017-09-09 12:00:00 27 9 Noroeste 20 Noroeste 0 964.6 0.5 47
2017-09-09 11:00:00 25.7 3 Norte 13 Noroeste 0 964.7 1.4 56
2017-09-09 10:00:00 23.1 0 Calma 4 Sur 0 964.4 0.9 65
2017-09-09 09:00:00 18.8 0 Calma 6 Sudeste 0 964.1 0.2 77
2017-09-09 08:00:00 19.1 2 Nordeste 7 Nordeste 0 963.3 -0.6 71
2017-09-09 07:00:00 20.5 2 Nordeste 7 Nordeste 0 963.5 -0.7 64
2017-09-09 06:00:00 21.7 3 Nordeste 6 Norte 0 963.9 -0.9 63
2017-09-09 05:00:00 22.8 0 Calma 10 Norte 0 963.9 -1.3 56
2017-09-09 04:00:00 23.3 0 Calma 9 Norte 0 964.2 -1.3 57
2017-09-09 03:00:00 24.1 5 Nordeste 13 Nordeste 0 964.8 -0.8 58
2017-09-09 02:00:00 26.3 0 Calma 13 Oeste 0 965.2 -0.4 53
2017-09-09 01:00:00 28.5 6 Oeste 11 Oeste 0 965.5 0.4 49
2017-09-09 00:00:00 28.7 4 Oeste 9 Oeste 0 965.6 1 56
2017-09-08 23:00:00 28.7 4 Oeste 9 Oeste 0 965.6 1.2 59
2017-09-08 22:00:00 30.2 2 Sudoeste 7 Sudoeste 0 965.1 0.6 57
2017-09-08 21:00:00 32.3 2 Sur 13 Sur 0 964.6 -0.2 49
2017-09-08 20:00:00 34.4 8 Sur 21 Sudeste 0 964.4 -0.5 41
2017-09-08 19:00:00 36.3 8 Sudeste 24 Sudeste 0 964.5 -1.1 40
2017-09-08 18:00:00 36.7 12 Sudeste 26 Sudeste 0 964.8 -1.4 39
2017-09-08 17:00:00 36.8 11 Sudeste 32 Sudeste 0 964.9 -1.8 39
2017-09-08 16:00:00 36.8 10 Sudeste 22 Sur 0 965.6 -1.7 40
2017-09-08 15:00:00 36.4 8 Oeste 22 Este 0 966.2 -1.3 41
2017-09-08 14:00:00 35.5 10 Sudeste 20 Este 0 966.7 -0.9 43
2017-09-08 13:00:00 34.8 7 Sudeste 22 Sudeste 0 967.3 -0.2 43
2017-09-08 12:00:00 32.6 7 Sur 20 Sudeste 0 967.5 0.1 47
2017-09-08 11:00:00 29.2 0 Calma 10 Sudoeste 0 967.6 0.7 57
2017-09-08 10:00:00 27 0 Calma 6 Noroeste 0 967.5 0.8 65
2017-09-08 09:00:00 25.1 4 Noroeste 8 Oeste 0 967.4 0.5 69
2017-09-08 08:00:00 24.2 3 Oeste 8 Noroeste 0 966.9 -0.2 71
2017-09-08 07:00:00 24.6 4 Oeste 10 Noroeste 0 966.7 -0.8 69
2017-09-08 06:00:00 25 6 Noroeste 12 Noroeste 0 966.9 -0.9 70
2017-09-08 05:00:00 24.9 6 Noroeste 15 Sur 0 967.1 -1 73
2017-09-08 04:00:00 25.1 0 Calma 9 Este 0 967.5 -0.6 73
2017-09-08 03:00:00 25.1 2 Noroeste 7 Oeste 0 967.8 -0.7 76
2017-09-08 02:00:00 25.5 3 Oeste 7 Oeste 0 968.1 -0.3 74
2017-09-08 01:00:00 25.9 4 Oeste 9 Sudoeste 0 968.1 0.4 72
2017-09-08 00:00:00 26.6 3 Sudoeste 7 Sur 0 968.5 1.6 71
2017-09-07 23:00:00 27.6 0 Calma 11 Sudoeste 0 968.4 1.5 68
2017-09-07 22:00:00 28.7 0 Calma 15 Sur 0 967.7 0.9 61
2017-09-07 21:00:00 30 9 Sur 23 Sudeste 0 966.9 -0.1 56
2017-09-07 20:00:00 31.8 10 Sur 25 Sur 0 966.9 -0.4 51
2017-09-07 19:00:00 33.5 14 Sudeste 26 Sudeste 0 966.8 -1.2 46
2017-09-07 18:00:00 35 12 Sudeste 26 Sudeste 0 967 -1.3 43
2017-09-07 17:00:00 35.1 13 Sudeste 27 Este 0 967.3 -1.4 43
2017-09-07 16:00:00 35.2 14 Sudeste 32 Sur 0 968 -1.1 41
2017-09-07 15:00:00 35 14 Sudeste 30 Sudeste 0 968.3 -0.9 40
2017-09-07 14:00:00 34.7 12 Sudeste 28 Sudeste 0 968.7 -0.4 41
2017-09-07 13:00:00 33.6 14 Sudeste 30 Sudeste 0 969.1 0.2 42
2017-09-07 12:00:00 32.8 14 Sudeste 26 Sudeste 0 969.2 0.2 42
2017-09-07 11:00:00 30.5 4 Sudoeste 10 Sudoeste 0 969.1 0.5 45
2017-09-07 10:00:00 28.1 5 Noroeste 9 Noroeste 0 968.9 0.3 53
2017-09-07 09:00:00 26 4 Oeste 9 Noroeste 0 969 0.2 56
2017-09-07 08:00:00 25.4 4 Oeste 9 Oeste 0 968.6 -0.4 54
2017-09-07 07:00:00 25.6 4 Noroeste 6 Sudoeste 0 968.6 -0.7 52
2017-09-07 06:00:00 25.6 2 Oeste 6 Oeste 0 968.8 -0.8 56
2017-09-07 05:00:00 26 4 Noroeste 10 Oeste 0 969 -1.4 60
2017-09-07 04:00:00 26.7 2 Oeste 13 Sudoeste 0 969.3 -1.3 53
2017-09-07 03:00:00 26.2 3 Sudoeste 11 Sudoeste 0 969.6 -0.9 52
2017-09-07 02:00:00 27.6 2 Sudoeste 17 Sur 0 970.4 0 44
2017-09-07 01:00:00 27.7 0 Calma 16 Sur 0 970.6 0.5 42
2017-09-07 00:00:00 28.6 5 Sur 20 Sur 0 970.5 1.1 40
2017-09-06 23:00:00 28.9 3 Sur 27 Sur 0 970.4 1.4 39
2017-09-06 22:00:00 29.4 13 Sur 33 Sudeste 0 970.1 1 38
2017-09-06 21:00:00 30.4 15 Sur 36 Sudeste 0 969.4 0.2 36
2017-09-06 20:00:00 32.6 16 Sudeste 32 Sur 0 969 -0.7 35
2017-09-06 19:00:00 34.5 15 Sudeste 30 Sudeste 0 969.1 -1.3 34
2017-09-06 18:00:00 35.5 17 Sudeste 31 Sudeste 0 969.2 -1.8 33
2017-09-06 17:00:00 36.4 17 Sudeste 32 Sudeste 0 969.7 -1.7 33
2017-09-06 16:00:00 36.9 14 Sudeste 31 Sudeste 0 970.4 -1.8 33
2017-09-06 15:00:00 36.4 12 Sudeste 27 Sudeste 0 971 -1.4 33
2017-09-06 14:00:00 36.1 10 Sudeste 29 Sudeste 0 971.4 -1 34
2017-09-06 13:00:00 35.2 15 Sur 28 Sudeste 0 972.2 -0.5 36
2017-09-06 12:00:00 34 4 Sur 18 Sudeste 0 972.4 -0.2 42
2017-09-06 11:00:00 28.8 0 Calma 4 Sudoeste 0 972.4 -0.1 70
2017-09-06 10:00:00 25.6 0 Calma 5 Este 0 972.7 0.5 84
2017-09-06 09:00:00 24.3 0 Calma 3 Sudoeste 0 972.6 0.3 88
2017-09-06 08:00:00 23.2 2 Oeste 9 Sudoeste 0 972.5 0 91
2017-09-06 07:00:00 23.4 3 Oeste 8 Sudoeste 0 972.2 -0.8 92
2017-09-06 06:00:00 23.6 3 Sudoeste 9 Sudoeste 0 972.3 -1 93
2017-09-06 05:00:00 23.9 0 Calma 9 Sudoeste 0 972.5 -0.8 92
2017-09-06 04:00:00 24.4 0 Calma 6 Oeste 0 973 -0.6 86
2017-09-06 03:00:00 25.1 3 Noroeste 7 Noroeste 0 973.3 -0.4 83
2017-09-06 02:00:00 25.8 4 Oeste 7 Oeste 0 973.3 -0.3 77
2017-09-06 01:00:00 26.3 0 Calma 7 Sur 0 973.6 0.6 73
2017-09-06 00:00:00 26.9 0 Calma 7 Sur 0 973.7 1.4 71
2017-09-05 23:00:00 27.8 3 Sudoeste 11 Sudoeste 0 973.6 1.7 61
2017-09-05 22:00:00 28.7 2 Sudoeste 12 Sudoeste 0 973 1.3 60
2017-09-05 21:00:00 30 3 Sudoeste 17 Sur 0 972.3 0.8 53
2017-09-05 20:00:00 31.9 9 Sur 25 Sur 0 971.9 -0.2 49
2017-09-05 19:00:00 33.7 10 Sur 28 Sur 0 971.7 -0.7 45
2017-09-05 18:00:00 33.8 8 Sur 29 Sur 0 971.5 -1.5 49
2017-09-05 17:00:00 33.2 11 Sur 30 Sudeste 0 972.1 -1.2 53
2017-09-05 16:00:00 33 15 Sur 30 Sudeste 0 972.4 -1.2 53
2017-09-05 15:00:00 32.6 12 Sur 30 Sur 0 973 -0.5 58
2017-09-05 14:00:00 32 10 Sur 29 Sudeste 0 973.3 0.1 60
2017-09-05 13:00:00 31.6 8 Sur 28 Sur 0 973.6 0.9 61
2017-09-05 12:00:00 30.4 12 Sudeste 27 Sudeste 0 973.5 1.3 63
2017-09-05 11:00:00 29.4 14 Sudeste 30 Sudeste 0 973.2 1.4 71
2017-09-05 10:00:00 27.6 0 Calma 6 Sudeste 0 972.7 1.5 81
2017-09-05 09:00:00 26.6 0 Calma 5 Nordeste 0 972.2 1.4 85
2017-09-05 08:00:00 24 0 Calma 4 Nordeste 0 971.8 1.1 93
2017-09-05 07:00:00 23.7 0 Calma 6 Oeste 0 971.2 0.6 92
2017-09-05 06:00:00 23.9 3 Oeste 6 Noroeste 0 970.8 0.3 76
2017-09-05 05:00:00 23.4 2 Noroeste 6 Oeste 0 970.7 0.1 77
2017-09-05 04:00:00 24.3 0 Calma 6 Nordeste 0 970.6 0.2 71
2017-09-05 03:00:00 25 0 Calma 11 Nordeste 0 970.5 0.3 70
2017-09-05 02:00:00 26 6 Nordeste 10 Nordeste 0 970.6 0.8 68
2017-09-05 01:00:00 26.3 6 Nordeste 9 Nordeste 0 970.4 1.1 66
2017-09-05 00:00:00 27.6 0 Calma 5 Sur 0 970.2 1.8 61
2017-09-04 23:00:00 28.4 2 Oeste 11 Noroeste 0 969.8 2 50
2017-09-04 22:00:00 30.4 3 Noroeste 13 Oeste 0 969.3 1.9 40
2017-09-04 21:00:00 32.1 4 Noroeste 18 Noroeste 0 968.4 1 36
2017-09-04 20:00:00 34.1 11 Noroeste 26 Oeste 0 967.8 0.3 30
2017-09-04 19:00:00 35.1 14 Noroeste 28 Noroeste 0 967.4 -0.5 29
2017-09-04 18:00:00 35.5 14 Noroeste 30 Oeste 0 967.4 -0.9 30
2017-09-04 17:00:00 35.6 15 Noroeste 29 Oeste 0 967.5 -0.9 30
2017-09-04 16:00:00 35.1 10 Noroeste 26 Noroeste 0 967.9 -0.9 31
2017-09-04 15:00:00 34.1 10 Noroeste 25 Noroeste 0 968.3 -0.7 31
2017-09-04 14:00:00 33.2 6 Noroeste 19 Noroeste 0 968.4 -0.3 35
2017-09-04 13:00:00 31.7 8 Noroeste 22 Noroeste 0 968.8 0.6 37
2017-09-04 12:00:00 30.1 6 Noroeste 14 Nordeste 0 969 1.2 42
2017-09-04 11:00:00 28.7 4 Norte 13 Norte 0 968.7 1.2 53
2017-09-04 10:00:00 25 0 Calma 8 Este 0 968.2 0.8 80
2017-09-04 09:00:00 22.9 0 Calma 5 Nordeste 0 967.8 0.3 92
2017-09-04 08:00:00 21.4 0 Calma 3 Este 0 967.5 0.2 93
2017-09-04 07:00:00 22.1 0 Calma 7 Nordeste 0 967.4 0 89
2017-09-04 06:00:00 22.6 0 Calma 5 Nordeste 0 967.5 0.1 90
2017-09-04 05:00:00 23.8 3 Nordeste 6 Nordeste 0 967.3 0 86
2017-09-04 04:00:00 24.8 0 Calma 6 Nordeste 0 967.4 -0.3 79
2017-09-04 03:00:00 25.3 4 Nordeste 7 Nordeste 0 967.4 -0.4 79
2017-09-04 02:00:00 26.6 0 Calma 5 Oeste 0 967.3 -0.4 71
2017-09-04 01:00:00 27.3 4 Oeste 6 Oeste 0 967.7 0.5 67
2017-09-04 00:00:00 27.5 0 Calma 5 Oeste 0 967.8 1.1 65
2017-09-03 23:00:00 28.4 2 Oeste 12 Oeste 0 967.7 1 61
2017-09-03 22:00:00 29.4 0 Calma 9 Sur 0 967.2 0.7 56
2017-09-03 21:00:00 30.9 3 Sudoeste 10 Sur 0 966.7 0.1 52
2017-09-03 20:00:00 32.7 5 Sudeste 14 Sudeste 0 966.7 -0.2 48
2017-09-03 19:00:00 34.3 4 Sudeste 17 Sur 0 966.5 -1.2 45
2017-09-03 18:00:00 34.8 3 Sudeste 17 Sur 0 966.6 -1.9 45
2017-09-03 17:00:00 34.5 2 Sur 14 Sudeste 0 966.9 -2.1 46
2017-09-03 16:00:00 34.1 5 Sudeste 18 Sur 0 967.7 -1.9 47
2017-09-03 15:00:00 33.5 3 Sur 23 Sur 0 968.5 -1.5 49
2017-09-03 14:00:00 33 8 Sur 24 Sudeste 0 969 -1 51
2017-09-03 13:00:00 31 6 Sur 30 Sur 0 969.6 -0.2 55
2017-09-03 12:00:00 30.7 14 Sudeste 30 Sudeste 0 970 -0.1 55
2017-09-03 11:00:00 29.6 14 Sur 26 Sudeste 0 970 -0.1 57
2017-09-03 10:00:00 26.9 0 Calma 8 Noroeste 0 969.8 -0.1 80
2017-09-03 09:00:00 24.7 4 Noroeste 10 Sudeste 0 970.1 0.1 93
2017-09-03 08:00:00 23.9 5 Sudeste 16 Sudeste 0 970.1 -0.1 94
2017-09-03 07:00:00 24.3 9 Sudeste 24 Sudeste 0 969.9 -0.6 94
2017-09-03 06:00:00 24.5 12 Sudeste 24 Este 0 970 -0.7 93
2017-09-03 05:00:00 24.6 10 Sudeste 24 Este 0 970.2 -1.1 93
2017-09-03 04:00:00 24.9 10 Sudeste 27 Sudeste 0 970.5 -1.1 92
2017-09-03 03:00:00 25.2 11 Sudeste 22 Sur 0 970.7 -1.1 90
2017-09-03 02:00:00 25.1 11 Sudeste 21 Sur 0 971.3 -0.3 91
2017-09-03 01:00:00 25.3 3 Sur 7 Sur 0 971.6 0 88
2017-09-03 00:00:00 25.3 0 Calma 12 Sudeste 0 971.8 0.9 81
2017-09-02 23:00:00 25.9 4 Sur 23 Sudeste 0 971.6 0.9 78
2017-09-02 22:00:00 26.8 8 Sudeste 20 Sudeste 0 971.6 1 73
2017-09-02 21:00:00 27.3 9 Sur 29 Sudeste 0 970.9 0.2 71
2017-09-02 20:00:00 28.5 16 Sudeste 32 Sudeste 0 970.7 -0.3 68
2017-09-02 19:00:00 29.8 16 Sudeste 38 Sudeste 0 970.6 -0.8 63
2017-09-02 18:00:00 30.1 18 Sudeste 37 Sudeste 0 970.7 -0.9 61
2017-09-02 17:00:00 30.9 17 Sur 36 Sur 0 971 -1.1 58
2017-09-02 16:00:00 31.5 11 Sur 30 Sur 0 971.4 -1 57
2017-09-02 15:00:00 31.6 12 Sudeste 34 Sudeste 0 971.6 -0.4 58
2017-09-02 14:00:00 30.1 15 Sudeste 33 Sudeste 0 972.1 0.3 62
2017-09-02 13:00:00 29.5 13 Sudeste 35 Sudeste 0 972.4 1 67
2017-09-02 12:00:00 29.7 17 Sudeste 37 Sudeste 0 972 1.1 66
2017-09-02 11:00:00 29 15 Sudeste 40 Sudeste 0 971.8 1.1 70
2017-09-02 10:00:00 27.1 22 Sudeste 44 Sudeste 0 971.4 1.3 78
2017-09-02 09:00:00 26 16 Sudeste 40 Sudeste 0 970.9 1.1 86
2017-09-02 08:00:00 25 17 Sudeste 35 Sur 0 970.7 0.6 90
2017-09-02 07:00:00 25.3 13 Sur 30 Sur 0 970.1 0 90
2017-09-02 06:00:00 25.4 10 Sur 30 Sudeste 0 969.8 -0.4 91
2017-09-02 05:00:00 25.4 13 Sudeste 27 Sur 0 970.1 -0.2 91
2017-09-02 04:00:00 26 15 Sur 31 Sur 0 970.1 -0.1 87
2017-09-02 03:00:00 25.8 12 Sur 26 Sur 0 970.2 0.7 87
2017-09-02 02:00:00 26 15 Sur 33 Sur 0 970.3 0.9 83
2017-09-02 01:00:00 26.9 14 Sur 33 Sur 0 970.2 1.3 71
2017-09-02 00:00:00 26.9 17 Sur 36 Sudeste 0 969.5 1.1 71
2017-09-01 23:00:00 27 15 Sur 43 Sur 0 969.4 1.4 72
2017-09-01 22:00:00 27.3 17 Sur 38 Sur 0 968.9 1.1 69
2017-09-01 21:00:00 28 19 Sur 37 Sur 0 968.4 0.8 62
2017-09-01 20:00:00 29.4 18 Sudeste 35 Sur 0 968 0.4 58
2017-09-01 19:00:00 31 19 Sudeste 37 Sur 0 967.8 0 54
2017-09-01 18:00:00 31.9 18 Sur 36 Sudeste 0 967.6 -0.8 50
2017-09-01 17:00:00 32.2 15 Sur 28 Sudeste 0 967.6 -1.4 50
2017-09-01 16:00:00 32.6 13 Sur 29 Sur 0 967.8 -1.4 50
2017-09-01 15:00:00 32.7 14 Sur 26 Sur 0 968.4 -1.1 51
2017-09-01 14:00:00 32.8 12 Sur 27 Sur 0 969 -0.5 53
2017-09-01 13:00:00 31.6 13 Sur 28 Sur 0 969.2 0.1 53
2017-09-01 12:00:00 30.3 9 Sur 23 Sur 0 969.5 0.6 55
2017-09-01 11:00:00 29 8 Sur 19 Sur 0 969.5 0.9 58
2017-09-01 10:00:00 27.6 3 Sudeste 9 Este 0 969.1 1 65
2017-09-01 09:00:00 25.9 0 Calma 6 Sudoeste 0 968.9 0.9 69
2017-09-01 08:00:00 23.5 0 Calma 9 Sudeste 0 968.6 0.6 76
2017-09-01 07:00:00 24.3 5 Este 16 Sudeste 0 968.1 0 70
2017-09-01 06:00:00 24.5 3 Este 9 Sudeste 0 968 -0.4 73
2017-09-01 05:00:00 25 0 Calma 14 Sudoeste 0 968 -0.5 75
2017-09-01 04:00:00 25.5 0 Calma 28 Sudoeste 0 968.1 -0.6 74
2017-09-01 03:00:00 25.6 14 Sur 30 Sur 0 968.4 -0.2 70
2017-09-01 02:00:00 25.9 17 Sur 33 Sur 0 968.5 0.2 67
2017-09-01 01:00:00 25.7 16 Sur 30 Sur 0 968.7 0.9 74
2017-09-01 00:00:00 26 17 Sur 33 Sur 0 968.6 1.5 74
2017-08-31 23:00:00 26.5 15 Sur 31 Sudeste 0 968.3 1.5 73
2017-08-31 22:00:00 27.4 10 Sur 21 Sur 0 967.8 1.4 55
2017-08-31 21:00:00 28.2 3 Sur 22 Sudeste 0 967.1 0.6 52
2017-08-31 20:00:00 30.3 9 Sur 26 Sur 0 966.8 0.5 46
2017-08-31 19:00:00 32.1 8 Sur 26 Sur 0 966.4 -0.4 45
2017-08-31 18:00:00 32.5 14 Sur 34 Sur 0 966.5 -0.9 43
2017-08-31 17:00:00 33.8 9 Sur 26 Sur 0 966.3 -1.8 41
2017-08-31 16:00:00 33.6 3 Sur 17 Noroeste 0 966.8 -1.8 45
2017-08-31 15:00:00 32.1 3 Nordeste 23 Noroeste 0 967.4 -1.4 49
2017-08-31 14:00:00 30.9 5 Noroeste 16 Noroeste 0 968.1 -0.6 52
2017-08-31 13:00:00 30.3 0 Calma 14 Este 0 968.6 -0.2 52
2017-08-31 12:00:00 29 3 Nordeste 9 Nordeste 0 968.8 0.5 58
2017-08-31 11:00:00 26.8 3 Este 8 Este 0 968.7 0.4 66
2017-08-31 10:00:00 23.9 0 Calma 4 Este 0 968.8 0.9 82
2017-08-31 09:00:00 21.9 0 Calma 4 Este 0 968.3 0.5 96
2017-08-31 08:00:00 20.9 0 Calma 4 Noroeste 0 968.3 0.4 99
2017-08-31 07:00:00 21.1 0 Calma 3 Sudeste 0 967.9 0.1 98
2017-08-31 06:00:00 21.7 0 Calma 0 Calma 0 967.8 -0.2 98
2017-08-31 05:00:00 21.4 0 Calma 9 Noroeste 0 967.9 -0.6 99
2017-08-31 04:00:00 21.6 0 Calma 2 Nordeste 0 967.8 -0.5 97
2017-08-31 03:00:00 22 0 Calma 10 Noroeste 0 968 -0.5 97
2017-08-31 02:00:00 22.5 0 Calma 3 Oeste 0 968.5 -0.1 92
2017-08-31 01:00:00 22.9 0 Calma 6 Sudeste 0 968.3 -0.1 90
2017-08-31 00:00:00 22.8 2 Oeste 7 Noroeste 0 968.5 0.5 88
2017-08-30 23:00:00 23.2 0 Calma 10 Sudoeste 0 968.6 0.9 85
2017-08-30 22:00:00 24 0 Calma 13 Sur 0 968.4 1.1 81
2017-08-30 21:00:00 24.7 6 Sur 22 Sudeste 0 968 0.5 75
2017-08-30 20:00:00 25.6 9 Sur 31 Sudeste 0 967.7 0.6 72
2017-08-30 19:00:00 26.3 16 Sudeste 33 Sur 0 967.3 0.1 69
2017-08-30 18:00:00 27.2 13 Sur 32 Sudeste 0 967.5 -0.1 65
2017-08-30 17:00:00 28.9 17 Sudeste 31 Sudeste 0 967.1 -1.2 58
2017-08-30 16:00:00 29.7 5 Oeste 15 Oeste 0 967.2 -1.5 49
2017-08-30 15:00:00 28.8 2 Nordeste 19 Norte 0 967.6 -1.5 50
2017-08-30 14:00:00 27.8 5 Nordeste 15 Este 0 968.3 -0.6 54
2017-08-30 13:00:00 26.1 3 Norte 18 Noroeste 0 968.7 0.2 65
2017-08-30 12:00:00 25.4 2 Norte 11 Norte 0 969.1 1.1 73
2017-08-30 11:00:00 23.1 0 Calma 8 Norte 0 968.9 1 87
2017-08-30 10:00:00 22.6 3 Oeste 6 Noroeste 0 968.5 0.9 89
2017-08-30 09:00:00 21.6 0 Calma 10 Sudeste 0 968 0.6 89
2017-08-30 08:00:00 21.3 0 Calma 9 Sudeste 0 967.9 0.9 90
2017-08-30 07:00:00 21.5 2 Sudeste 14 Sudeste 0 967.6 0 88
2017-08-30 06:00:00 21.2 3 Sudeste 11 Sudeste 0 967.4 -0.4 92
2017-08-30 05:00:00 21.8 4 Sudeste 18 Sudeste 0 967 -1 88
2017-08-30 04:00:00 21.8 3 Sudeste 20 Sudeste 0 967.6 -0.3 91
2017-08-30 03:00:00 21.9 5 Sur 12 Sudeste 0.1 967.8 0.2 96
2017-08-30 02:00:00 22.1 0 Calma 8 Nordeste 0 968 0.3 91
2017-08-30 01:00:00 21.8 3 Nordeste 9 Nordeste 0 967.9 0.4 94
2017-08-30 00:00:00 22 5 Nordeste 13 Norte 0 967.6 1.3 93
2017-08-29 23:00:00 22.1 5 Nordeste 17 Noroeste 0 967.7 2.3 92
2017-08-29 22:00:00 21.6 8 Noroeste 22 Noroeste 0.1 967.5 2.7 94
2017-08-29 21:00:00 24.7 4 Noroeste 22 Sudeste 0 966.3 1.1 70
2017-08-29 20:00:00 26.4 11 Sudeste 22 Sur 0 965.4 0.5 55
2017-08-29 19:00:00 27.9 7 Sudeste 22 Sur 0 964.8 -0.5 54
2017-08-29 18:00:00 27.5 10 Sur 21 Sur 0 965.2 -0.8 57
2017-08-29 17:00:00 27.8 0 Calma 14 Sur 0 964.9 -1.8 53
2017-08-29 16:00:00 27.9 3 Sudoeste 12 Sudoeste 0 965.3 -1.6 55
2017-08-29 15:00:00 27.3 5 Sur 15 Sudoeste 0 966 -1.1 58
2017-08-29 14:00:00 25.8 5 Oeste 17 Oeste 0 966.7 -0.2 69
2017-08-29 13:00:00 25.1 7 Oeste 16 Oeste 0 966.9 0.1 74
2017-08-29 12:00:00 24.5 4 Noroeste 14 Oeste 0 967.1 0.5 75
2017-08-29 11:00:00 23.2 0 Calma 9 Noroeste 0 966.9 0.5 86
2017-08-29 10:00:00 22 0 Calma 5 Oeste 0 966.8 0 91
2017-08-29 09:00:00 21.1 2 Este 13 Este 0 966.6 0.1 97
2017-08-29 08:00:00 20 3 Este 8 Este 0 966.4 -0.2 99
2017-08-29 07:00:00 20.6 0 Calma 6 Este 0 966.8 -0.3 99
2017-08-29 06:00:00 20.6 5 Este 9 Este 0 966.5 -0.9 99
2017-08-29 05:00:00 21.1 2 Nordeste 8 Noroeste 0 966.6 -1.1 97
2017-08-29 04:00:00 21.2 0 Calma 8 Nordeste 0 967.1 -0.7 96
2017-08-29 03:00:00 21.6 0 Calma 10 Noroeste 0 967.4 -0.5 96
2017-08-29 02:00:00 21.7 0 Calma 10 Noroeste 0 967.7 0.3 91
2017-08-29 01:00:00 21.9 5 Noroeste 16 Oeste 0 967.8 0.8 90
2017-08-29 00:00:00 22.4 4 Noroeste 17 Nordeste 0 967.9 1.4 88
2017-08-28 23:00:00 22.5 4 Noroeste 12 Noroeste 0 967.4 0.9 99
2017-08-28 22:00:00 22.4 0 Calma 6 Noroeste 0 967 0.2 97
2017-08-28 21:00:00 22.8 0 Calma 10 Norte 0 966.5 -0.4 96
2017-08-28 20:00:00 23.2 6 Nordeste 8 Este 0 966.5 -0.8 96
2017-08-28 19:00:00 23 4 Nordeste 12 Sur 0.4 966.8 -0.9 98
2017-08-28 18:00:00 22.6 0 Calma 9 Sur 0.6 966.9 -1 97
2017-08-28 17:00:00 22.2 4 Norte 12 Noroeste 0 967.3 -0.8 97
2017-08-28 16:00:00 21.8 2 Norte 21 Noroeste 4.7 967.7 -0.3 99
2017-08-28 15:00:00 21.9 0 Calma 8 Noroeste 0.1 967.9 -0.5 99
2017-08-28 14:00:00 20.9 0 Calma 16 Sur 1.8 968.1 -- 99
2017-08-28 13:00:00 21.1 5 Nordeste 17 Sur 10 968 1.8 99
2017-08-28 12:00:00 20.7 5 Norte 21 Noroeste 10.8 968.4 1.5 99
2017-08-28 11:00:00 -- 14 Noroeste -- -- -- -- -- --
2017-08-28 10:00:00 22.3 8 Nordeste 18 Norte 0.5 966.2 0.4 92
2017-08-28 09:00:00 22.5 12 Nordeste 23 Norte 0 966.9 1.2 86
2017-08-28 08:00:00 22.5 7 Norte 23 Sudeste 0 966.4 0.4 89
2017-08-28 07:00:00 26.5 10 Sudeste 30 Sudeste 0 965.8 -0.4 90
2017-08-28 06:00:00 26.8 10 Sudeste 24 Sudeste 0 965.7 -0.5 89
2017-08-28 05:00:00 27.2 8 Este 28 Sudoeste 0 966 -0.6 85
2017-08-28 04:00:00 27.3 6 Sudoeste 23 Sudoeste 0 966.2 -0.1 82
2017-08-28 03:00:00 27.6 9 Sur 38 Sudeste 0 966.2 -0.8 82
2017-08-28 02:00:00 27.8 17 Sur 40 Sudeste 0 966.6 -0.1 81
2017-08-28 01:00:00 27.7 8 Sur 42 Sudeste 0 966.3 0.7 80
2017-08-28 00:00:00 27.5 19 Sur 49 Sur 0 967 1.6 81
2017-08-27 23:00:00 27.3 17 Sur 34 Sudeste 0 966.7 1.4 79
2017-08-27 22:00:00 27.8 19 Sudeste 40 Sudeste 0 965.6 0.4 81
2017-08-27 21:00:00 28 12 Sur 30 Sur 0 965.4 0.4 79
2017-08-27 20:00:00 29.5 10 Sur 28 Sur 0 965.3 -0.1 68
2017-08-27 19:00:00 31.7 13 Sur 32 Sur 0 965.2 -1.1 56
2017-08-27 18:00:00 33.2 13 Sur 31 Sur 0 965 -2.5 54
2017-08-27 17:00:00 31.8 4 Sudoeste 22 Sur 0 965.4 -3.9 65
2017-08-27 16:00:00 30.4 14 Este 28 Este 0 966.3 -2.7 63
2017-08-27 15:00:00 26.2 9 Nordeste 25 Sur 2.6 967.5 0.1 97
2017-08-27 14:00:00 26.2 6 Noroeste 24 Oeste 2.1 969.3 2.5 98
2017-08-27 13:00:00 28.6 8 Oeste 24 Sur 0 969 1.5 78
2017-08-27 12:00:00 27.9 2 Nordeste 27 Este 0 967.4 0.7 78
2017-08-27 11:00:00 27.3 17 Este 32 Sur 0 966.8 1.3 85
2017-08-27 10:00:00 28.1 0 Calma 15 Noroeste 0.3 967.5 3.1 79
2017-08-27 09:00:00 27.6 4 Noroeste 23 Oeste 0 966.7 1.3 81
2017-08-27 08:00:00 27.7 8 Sudoeste 45 Sur 0 965.5 -0.8 80
2017-08-27 07:00:00 29.6 21 Sur 45 Sur 0 964.4 -2 62
2017-08-27 06:00:00 28 14 Sur 33 Sur 0 965.4 -1 77
2017-08-27 05:00:00 29.3 14 Sur 40 Sudoeste 0 966.3 -0.2 62
2017-08-27 04:00:00 30.1 3 Oeste 21 Sur 0 966.4 0.2 56
2017-08-27 03:00:00 30.6 6 Oeste 29 Este 0 966.4 -0.3 55
2017-08-27 02:00:00 29.6 8 Sur 39 Sur 0 966.5 0.4 64
2017-08-27 01:00:00 28.4 19 Sur 66 Sur 0 966.2 -0.4 78
2017-08-27 00:00:00 28.1 33 Sur 55 Sur 0 966.7 0.9 82
2017-08-26 23:00:00 31.9 10 Sudeste 26 Este 0 966.1 0.8 48
2017-08-26 22:00:00 32.1 0 Calma 24 Sur 0 966.6 1.3 43
2017-08-26 21:00:00 33 9 Sur 32 Sudeste 0 965.8 0.2 43
2017-08-26 20:00:00 34 12 Sur 39 Sur 0 965.3 -0.2 41
2017-08-26 19:00:00 35.5 14 Sur 34 Sur 0 965.3 -0.2 39
2017-08-26 18:00:00 36.6 14 Sur 36 Sur 0 965.6 -0.8 40
2017-08-26 17:00:00 36.8 16 Sur 40 Sur 0 965.5 -1.3 46
2017-08-26 16:00:00 36.2 18 Sur 30 Sur 0 965.5 -1.4 45
2017-08-26 15:00:00 35.8 10 Sur 30 Sudeste 0 966.4 -0.8 48
2017-08-26 14:00:00 35.6 10 Sudeste 34 Sudeste 0 966.8 -0.5 50
2017-08-26 13:00:00 35 18 Sudeste 33 Sur 0 966.9 0.2 46
2017-08-26 12:00:00 35.2 14 Sudeste 34 Sudeste 0 967.2 0.4 40
2017-08-26 11:00:00 33.7 9 Sur 22 Sur 0 967.3 0.7 45
2017-08-26 10:00:00 32.5 8 Sudeste 22 Sudoeste 0 966.7 0.3 47
2017-08-26 09:00:00 30.1 0 Calma 13 Noroeste 0 966.8 0.4 50
2017-08-26 08:00:00 27.3 8 Noroeste 16 Noroeste 0 966.6 0.3 61
2017-08-26 07:00:00 27.4 7 Noroeste 38 Sur 0 966.4 -0.3 65
2017-08-26 06:00:00 28.9 3 Sur 30 Sur 0 966.4 -0.9 53
2017-08-26 05:00:00 29.1 14 Sur 28 Sudeste 0 966.3 -1.2 56
2017-08-26 04:00:00 29.4 0 Calma 27 Sur 0 966.7 -1.2 53
2017-08-26 03:00:00 28.9 6 Noroeste 26 Sudeste 0 967.3 -0.7 51
2017-08-26 02:00:00 30 12 Sudeste 36 Sudeste 0 967.5 -0.2 52
2017-08-26 01:00:00 31.1 13 Sudeste 25 Sudeste 0 967.9 0.3 48
2017-08-26 00:00:00 31 2 Sudoeste 17 Sur 0 968 0.8 44